Language: 


Des rapports , des résumés tant et plus, au choix de chacun....


Données statistiques de la station
Quotidien Rapport Septembre 14, 2017 Unités:  Métrique    Anglais   les deux
« Précédent Jour
Suivant Jour »
Quotidien Hebdomadaire Mensuel Annuel Actuel
  Haut: Bas: Moyen:
Température: 17.2 °C 0.0 °C 13 °C
Pt de rosée: 12.0 °C 9.0 °C 10.8 °C
Humidité: 98 % 0 % 85 %
Vitesse du vent: 31.7 km/h 0.0 km/h 10.4 km/h
Rafales: 38.1 km/h - -
Vent:- - WSW
Pression: 1013.1 hPa 999.9 hPa -
Précipitation: 8.6 mm    
Historical Graphs
 
 
Données statistiques pour Septembre 14, 2017
Heure Température Point de rosée Pression Vent Vitesse du vent Refales Humidité Pluie (taux horaire)
00:01 12.6 °C 11.0 °C 1001.9 hPa Calm   6.9 km/h 88 % 0.0 mm
00:06 12.6 °C 11.0 °C 1001.9 hPa WSW 9.0 km/h 10.5 km/h 88 % 0.0 mm
00:11 12.6 °C 11.0 °C 1001.9 hPa West 14.3 km/h 16.3 km/h 88 % 0.0 mm
00:16 12.8 °C 12.0 °C 1001.9 hPa SW 9.3 km/h 16.3 km/h 89 % 0.0 mm
00:21 12.7 °C 11.0 °C 1001.9 hPa WSW 9.0 km/h 14.3 km/h 89 % 0.0 mm
00:26 12.6 °C 11.0 °C 1001.9 hPa WSW 7.9 km/h 10.5 km/h 89 % 0.0 mm
00:31 12.5 °C 11.0 °C 1001.9 hPa WSW 7.6 km/h 10.5 km/h 89 % 0.0 mm
00:33 12.5 °C 11.0 °C 1001.9 hPa WSW 5.0 km/h 11.9 km/h 89 % 0.0 mm
00:38 12.4 °C 11.0 °C 1001.9 hPa WSW 9.7 km/h 11.9 km/h 89 % 0.0 mm
00:43 12.3 °C 11.0 °C 1001.9 hPa Calm   10.5 km/h 89 % 0.0 mm
00:48 12.2 °C 11.0 °C 1001.9 hPa Calm   9.7 km/h 89 % 0.0 mm
00:53 12.2 °C 11.0 °C 1001.9 hPa Calm   6.9 km/h 89 % 0.0 mm
00:58 12.2 °C 11.0 °C 1001.9 hPa Calm   6.9 km/h 89 % 0.0 mm
01:03 12.2 °C 11.0 °C 1001.9 hPa Calm   6.1 km/h 90 % 0.0 mm
01:08 12.3 °C 11.0 °C 1001.9 hPa Calm   3.5 km/h 91 % 0.0 mm
01:13 12.4 °C 11.0 °C 1001.9 hPa SW 9.3 km/h 9.3 km/h 91 % 0.0 mm
01:18 12.5 °C 12.0 °C 1001.9 hPa WSW 10.8 km/h 10.8 km/h 91 % 0.0 mm
01:23 12.5 °C 12.0 °C 1001.9 hPa SSW 7.6 km/h 15.4 km/h 92 % 0.3 mm
01:28 12.4 °C 12.0 °C 1001.9 hPa SW 4.3 km/h 15.4 km/h 93 % 0.3 mm
01:33 12.4 °C 12.0 °C 1001.9 hPa SSW 6.1 km/h 11.6 km/h 93 % 0.3 mm
01:38 12.3 °C 12.0 °C 1001.9 hPa Calm   7.2 km/h 94 % 0.3 mm
01:43 12.2 °C 11.0 °C 1001.9 hPa Calm   9.3 km/h 94 % 0.3 mm
01:48 12.2 °C 11.0 °C 1001.9 hPa SSW 4.0 km/h 9.3 km/h 94 % 0.3 mm
01:53 12.2 °C 11.0 °C 1001.9 hPa South 4.7 km/h 10.5 km/h 94 % 0.3 mm
01:58 12.1 °C 12.0 °C 1001.9 hPa Calm   10.5 km/h 95 % 0.3 mm
02:03 12.1 °C 12.0 °C 1000.9 hPa Calm   10.5 km/h 95 % 0.8 mm
02:09 12.0 °C 12.0 °C 1000.9 hPa SSW 9.0 km/h 11.9 km/h 95 % 0.8 mm
02:14 12.0 °C 12.0 °C 1000.9 hPa WSW 10.5 km/h 11.9 km/h 96 % 0.8 mm
02:19 12.0 °C 12.0 °C 1001.9 hPa SW 14.0 km/h 16.9 km/h 96 % 1.3 mm
02:24 11.9 °C 12.0 °C 1001.9 hPa WSW 7.9 km/h 16.9 km/h 96 % 1.0 mm
02:29 11.9 °C 12.0 °C 1001.9 hPa West 6.4 km/h 9.7 km/h 97 % 1.5 mm
02:34 11.9 °C 12.0 °C 1001.9 hPa West 4.3 km/h 9.3 km/h 97 % 2.5 mm
02:39 11.8 °C 11.0 °C 1001.9 hPa Calm   7.9 km/h 97 % 3.0 mm
02:44 11.7 °C 11.0 °C 1001.9 hPa West 6.1 km/h 8.7 km/h 97 % 3.3 mm
02:49 11.7 °C 11.0 °C 1001.9 hPa WSW 7.6 km/h 10.5 km/h 97 % 3.8 mm
02:54 11.7 °C 11.0 °C 1001.9 hPa Calm   10.5 km/h 97 % 4.1 mm
02:59 11.7 °C 12.0 °C 1001.9 hPa Calm   9.7 km/h 98 % 4.3 mm
03:04 0.0 °C 12.0 °C 1000.9 hPa Calm   9.7 km/h 0 % 4.3 mm
03:09 11.5 °C 11.0 °C 1000.9 hPa Calm     97 % 4.1 mm
03:14 11.4 °C 11.0 °C 1000.9 hPa Calm     97 % 4.1 mm
03:19 11.4 °C 11.0 °C 1000.9 hPa Calm   2.1 km/h 97 % 3.8 mm
03:24 11.3 °C 11.0 °C 1000.9 hPa Calm   2.6 km/h 97 % 3.8 mm
03:29 11.2 °C 11.0 °C 1000.9 hPa Calm   2.6 km/h 97 % 3.0 mm
03:34 11.2 °C 11.0 °C 1000.9 hPa Calm   1.4 km/h 97 % 2.0 mm
03:39 11.2 °C 11.0 °C 1000.9 hPa Calm   1.4 km/h 97 % 1.5 mm
03:44 11.1 °C 11.0 °C 1000.9 hPa Calm   1.4 km/h 98 % 1.3 mm
03:49 11.1 °C 11.0 °C 1000.9 hPa Calm     98 % 0.8 mm
03:54 11.1 °C 11.0 °C 1000.9 hPa Calm   3.5 km/h 98 % 0.3 mm
03:59 11.1 °C 11.0 °C 1000.9 hPa Calm   5.8 km/h 98 % 0.3 mm
04:04 11.1 °C 11.0 °C 1000.9 hPa Calm   5.8 km/h 98 % 0.3 mm
04:09 11.1 °C 11.0 °C 1000.9 hPa Calm   10.5 km/h 98 % 0.3 mm
04:14 11.2 °C 11.0 °C 1000.9 hPa Calm   10.5 km/h 98 % 0.0 mm
04:19 11.2 °C 11.0 °C 1000.9 hPa SW 5.8 km/h 12.2 km/h 98 % 0.0 mm
04:25 11.2 °C 11.0 °C 1000.9 hPa WSW 9.3 km/h 12.2 km/h 98 % 0.0 mm
04:30 11.1 °C 11.0 °C 999.9 hPa Calm   9.3 km/h 98 % 0.0 mm
04:35 11.1 °C 11.0 °C 999.9 hPa SW 9.7 km/h 9.7 km/h 98 % 0.0 mm
04:40 11.1 °C 11.0 °C 999.9 hPa SSW 12.6 km/h 12.6 km/h 98 % 0.0 mm
04:45 11.1 °C 11.0 °C 1000.9 hPa SSW 9.7 km/h 12.6 km/h 98 % 0.3 mm
04:50 11.1 °C 11.0 °C 1000.9 hPa SW 10.5 km/h 12.6 km/h 98 % 0.3 mm
04:55 11.0 °C 11.0 °C 1000.9 hPa SSW 7.9 km/h 16.6 km/h 98 % 0.3 mm
05:00 11.0 °C 11.0 °C 1000.9 hPa SSE 7.9 km/h 16.6 km/h 98 % 0.3 mm
05:05 11.0 °C 11.0 °C 1000.9 hPa SSW 7.2 km/h 14.0 km/h 98 % 0.3 mm
05:11 11.0 °C 11.0 °C 1000.9 hPa SSW 5.5 km/h 14.0 km/h 98 % 0.5 mm
05:17 11.0 °C 11.0 °C 1000.9 hPa SW 9.7 km/h 11.9 km/h 98 % 0.5 mm
05:22 11.0 °C 11.0 °C 1000.9 hPa SW 11.9 km/h 11.9 km/h 98 % 0.5 mm
05:23 11.0 °C 11.0 °C 1000.9 hPa SSW 7.9 km/h 11.9 km/h 98 % 0.5 mm
05:25 11.0 °C 11.0 °C 1000.9 hPa SSW 10.5 km/h 11.9 km/h 98 % 0.5 mm
05:28 11.0 °C 11.0 °C 1000.9 hPa SSW 15.4 km/h 15.4 km/h 98 % 0.5 mm
05:33 10.9 °C 11.0 °C 999.9 hPa SW 10.5 km/h 15.4 km/h 98 % 0.5 mm
05:37 10.9 °C 11.0 °C 999.9 hPa WSW 12.6 km/h 13.0 km/h 98 % 0.5 mm
05:42 10.8 °C 11.0 °C 999.9 hPa SSW 4.7 km/h 14.3 km/h 98 % 0.3 mm
05:48 10.8 °C 11.0 °C 1001.9 hPa SW 6.4 km/h 14.3 km/h 98 % 0.3 mm
05:53 10.8 °C 11.0 °C 1001.9 hPa SW 3.5 km/h 12.6 km/h 98 % 0.3 mm
05:58 10.8 °C 11.0 °C 1001.9 hPa SSW 9.3 km/h 16.3 km/h 98 % 0.3 mm
06:03 10.8 °C 11.0 °C 1000.9 hPa WSW 6.9 km/h 16.3 km/h 98 % 0.3 mm
06:08 10.7 °C 11.0 °C 1000.9 hPa SSW 9.0 km/h 14.8 km/h 98 % 0.3 mm
06:13 10.7 °C 11.0 °C 1000.9 hPa WSW 11.9 km/h 13.0 km/h 98 % 0.0 mm
06:18 10.8 °C 11.0 °C 1000.9 hPa SW 6.9 km/h 14.0 km/h 98 % 0.0 mm
06:23 10.8 °C 11.0 °C 1000.9 hPa SSW 7.9 km/h 14.0 km/h 98 % 0.0 mm
06:28 10.8 °C 11.0 °C 1000.9 hPa SW 9.0 km/h 10.8 km/h 98 % 0.0 mm
06:33 10.8 °C 11.0 °C 1000.9 hPa SW 5.8 km/h 10.8 km/h 98 % 0.0 mm
06:38 10.8 °C 11.0 °C 1000.9 hPa WSW 6.9 km/h 11.6 km/h 98 % 0.5 mm
06:43 10.7 °C 11.0 °C 1000.9 hPa WSW 5.8 km/h 11.6 km/h 98 % 0.5 mm
06:48 10.6 °C 11.0 °C 999.9 hPa Calm   10.5 km/h 98 % 0.5 mm
06:53 10.5 °C 11.0 °C 999.9 hPa West 7.6 km/h 10.5 km/h 98 % 0.5 mm
06:58 10.4 °C 10.0 °C 999.9 hPa WSW 5.8 km/h 9.3 km/h 98 % 0.5 mm
07:03 10.4 °C 10.0 °C 1000.9 hPa WSW 9.3 km/h 11.6 km/h 98 % 0.5 mm
07:08 10.3 °C 10.0 °C 1000.9 hPa WSW 9.7 km/h 11.6 km/h 98 % 0.5 mm
07:13 10.2 °C 10.0 °C 1000.9 hPa WSW 14.8 km/h 14.8 km/h 98 % 0.5 mm
07:18 10.2 °C 10.0 °C 1000.9 hPa West 9.7 km/h 14.8 km/h 98 % 0.5 mm
07:23 10.1 °C 10.0 °C 1000.9 hPa WSW 9.3 km/h 14.8 km/h 98 % 0.5 mm
07:28 10.1 °C 10.0 °C 1000.9 hPa WSW 9.0 km/h 10.1 km/h 98 % 0.5 mm
07:33 10.0 °C 10.0 °C 1000.9 hPa WSW 8.7 km/h 11.9 km/h 98 % 0.3 mm
07:38 10.0 °C 10.0 °C 1000.9 hPa WSW 9.7 km/h 11.9 km/h 98 % 0.0 mm
07:43 10.0 °C 10.0 °C 1000.9 hPa WSW 10.1 km/h 11.6 km/h 98 % 0.0 mm
07:48 10.0 °C 10.0 °C 1000.9 hPa SW 9.0 km/h 13.0 km/h 98 % 0.0 mm
07:54 10.0 °C 10.0 °C 1000.9 hPa SW 9.3 km/h 13.0 km/h 98 % 0.0 mm
07:59 10.0 °C 10.0 °C 1000.9 hPa WSW 8.7 km/h 12.6 km/h 98 % 0.0 mm
08:04 10.0 °C 10.0 °C 1000.9 hPa West 9.7 km/h 12.2 km/h 98 % 0.0 mm
08:09 10.1 °C 10.0 °C 1000.9 hPa WSW 1.8 km/h 10.5 km/h 98 % 0.0 mm
08:14 10.2 °C 10.0 °C 1000.9 hPa WSW 9.7 km/h 11.9 km/h 98 % 0.0 mm
08:19 10.2 °C 10.0 °C 1001.9 hPa WSW 11.9 km/h 14.0 km/h 98 % 0.0 mm
08:20 10.4 °C 10.0 °C 1001.9 hPa SSW 10.5 km/h 14.0 km/h 98 % 0.0 mm
08:25 10.5 °C 11.0 °C 1001.9 hPa WSW 11.6 km/h 14.0 km/h 98 % 0.0 mm
08:30 10.6 °C 11.0 °C 1001.9 hPa WSW 14.3 km/h 14.3 km/h 98 % 0.0 mm
08:35 10.8 °C 11.0 °C 1001.9 hPa WSW 9.7 km/h 14.3 km/h 98 % 0.0 mm
08:40 10.9 °C 11.0 °C 1001.9 hPa West 9.7 km/h 14.3 km/h 98 % 0.0 mm
08:45 11.0 °C 11.0 °C 1001.9 hPa WSW 14.0 km/h 15.1 km/h 98 % 0.0 mm
08:50 11.0 °C 11.0 °C 1001.9 hPa SW 11.9 km/h 15.4 km/h 98 % 0.0 mm
08:55 11.3 °C 11.0 °C 1001.9 hPa West 12.2 km/h 15.4 km/h 98 % 0.0 mm
09:00 11.4 °C 11.0 °C 1001.9 hPa West 14.0 km/h 15.8 km/h 97 % 0.0 mm
09:05 11.4 °C 11.0 °C 1001.9 hPa West 12.2 km/h 15.8 km/h 97 % 0.0 mm
09:10 11.6 °C 11.0 °C 1001.9 hPa WSW 10.1 km/h 14.0 km/h 97 % 0.0 mm
09:15 11.8 °C 11.0 °C 1002.9 hPa West 15.8 km/h 16.9 km/h 96 % 0.0 mm
09:20 11.9 °C 11.0 °C 1002.9 hPa WSW 8.7 km/h 21.6 km/h 95 % 0.0 mm
09:25 12.1 °C 11.0 °C 1002.9 hPa WNW 11.6 km/h 21.6 km/h 94 % 0.0 mm
09:30 12.1 °C 11.0 °C 1002.9 hPa WSW 12.6 km/h 20.1 km/h 94 % 0.0 mm
09:35 12.2 °C 11.0 °C 1002.9 hPa West 20.1 km/h 20.1 km/h 93 % 0.0 mm
09:40 12.4 °C 12.0 °C 1002.9 hPa WSW 10.1 km/h 20.1 km/h 93 % 0.0 mm
09:45 12.5 °C 12.0 °C 1002.9 hPa West 11.6 km/h 18.0 km/h 93 % 0.0 mm
09:50 12.6 °C 12.0 °C 1002.9 hPa West 9.7 km/h 21.2 km/h 92 % 0.0 mm
09:55 12.7 °C 12.0 °C 1002.9 hPa West 20.6 km/h 21.2 km/h 92 % 0.0 mm
10:00 12.9 °C 12.0 °C 1002.9 hPa West 14.0 km/h 20.6 km/h 92 % 0.0 mm
10:05 12.9 °C 12.0 °C 1002.9 hPa WSW 16.6 km/h 20.6 km/h 92 % 0.0 mm
10:10 13.0 °C 12.0 °C 1002.9 hPa West 17.2 km/h 19.8 km/h 91 % 0.0 mm
10:15 12.9 °C 12.0 °C 1002.9 hPa West 16.3 km/h 19.8 km/h 90 % 0.0 mm
10:20 13.1 °C 12.0 °C 1002.9 hPa WSW 7.9 km/h 17.7 km/h 90 % 0.0 mm
10:25 13.2 °C 12.0 °C 1002.9 hPa West 20.1 km/h 20.6 km/h 89 % 0.0 mm
10:30 13.2 °C 12.0 °C 1003.9 hPa West 12.2 km/h 20.6 km/h 89 % 0.0 mm
10:36 13.3 °C 12.0 °C 1003.9 hPa West 12.6 km/h 20.1 km/h 89 % 0.0 mm
10:41 13.5 °C 12.0 °C 1003.9 hPa West 18.3 km/h 20.1 km/h 87 % 0.0 mm
10:46 13.5 °C 12.0 °C 1005.0 hPa WSW 20.9 km/h 20.9 km/h 87 % 0.0 mm
10:51 13.9 °C 12.0 °C 1005.0 hPa West 24.8 km/h 24.8 km/h 85 % 0.0 mm
10:56 14.1 °C 12.0 °C 1005.0 hPa WSW 19.8 km/h 24.8 km/h 84 % 0.0 mm
11:01 14.1 °C 12.0 °C 1005.0 hPa West 12.2 km/h 23.8 km/h 84 % 0.0 mm
11:06 14.1 °C 12.0 °C 1005.0 hPa WSW 17.7 km/h 23.8 km/h 84 % 0.0 mm
11:11 14.1 °C 11.0 °C 1005.0 hPa West 19.1 km/h 20.9 km/h 81 % 0.0 mm
11:16 14.6 °C 12.0 °C 1005.0 hPa West 13.7 km/h 22.7 km/h 80 % 0.0 mm
11:21 14.6 °C 12.0 °C 1005.0 hPa West 20.9 km/h 27.7 km/h 80 % 0.0 mm
11:26 14.6 °C 11.0 °C 1005.0 hPa West 6.9 km/h 27.7 km/h 78 % 0.0 mm
11:31 15.2 °C 12.0 °C 1005.0 hPa WSW 16.3 km/h 20.9 km/h 80 % 0.0 mm
11:36 15.3 °C 11.0 °C 1005.0 hPa West 28.0 km/h 31.4 km/h 74 % 0.0 mm
11:41 14.8 °C 10.0 °C 1005.0 hPa West 25.3 km/h 31.4 km/h 73 % 0.0 mm
11:46 15.0 °C 11.0 °C 1005.0 hPa West 29.1 km/h 29.1 km/h 74 % 0.0 mm
11:51 14.8 °C 10.0 °C 1005.0 hPa West 12.2 km/h 29.1 km/h 73 % 0.0 mm
11:56 14.8 °C 10.0 °C 1005.0 hPa West 16.3 km/h 28.0 km/h 73 % 0.0 mm
12:01 14.8 °C 10.0 °C 1005.0 hPa West 23.8 km/h 28.0 km/h 73 % 0.0 mm
12:06 15.7 °C 10.0 °C 1005.0 hPa West 12.2 km/h 33.5 km/h 69 % 0.0 mm
12:11 15.6 °C 10.0 °C 1005.0 hPa West 16.6 km/h 33.5 km/h 68 % 0.0 mm
12:16 14.9 °C 9.0 °C 1005.0 hPa West 12.6 km/h 28.0 km/h 68 % 0.0 mm
12:21 14.9 °C 9.0 °C 1005.0 hPa West 6.4 km/h 28.5 km/h 68 % 0.0 mm
12:26 14.9 °C 9.0 °C 1005.0 hPa West 20.9 km/h 28.5 km/h 68 % 0.0 mm
12:32 15.2 °C 10.0 °C 1005.0 hPa West 20.6 km/h 30.9 km/h 68 % 0.0 mm
12:37 15.1 °C 9.0 °C 1005.0 hPa WSW 24.8 km/h 31.4 km/h 68 % 0.0 mm
12:42 15.1 °C 10.0 °C 1005.0 hPa West 16.6 km/h 31.4 km/h 70 % 0.0 mm
12:47 14.9 °C 10.0 °C 1006.0 hPa SW 24.8 km/h 28.0 km/h 71 % 0.0 mm
12:52 14.9 °C 10.0 °C 1006.0 hPa WNW 31.7 km/h 31.7 km/h 71 % 0.0 mm
12:57 14.2 °C 10.0 °C 1006.0 hPa West 20.6 km/h 38.1 km/h 74 % 0.0 mm
13:02 14.2 °C 10.0 °C 1006.0 hPa West 14.3 km/h 38.1 km/h 74 % 0.0 mm
13:07 14.5 °C 11.0 °C 1006.0 hPa West 19.1 km/h 24.5 km/h 75 % 0.0 mm
13:12 14.6 °C 11.0 °C 1006.0 hPa WSW 21.2 km/h 21.2 km/h 75 % 0.0 mm
13:17 14.7 °C 11.0 °C 1007.0 hPa WNW 13.0 km/h 21.2 km/h 76 % 0.0 mm
13:22 14.8 °C 11.0 °C 1007.0 hPa West 20.6 km/h 27.0 km/h 77 % 0.0 mm
13:27 14.8 °C 11.0 °C 1007.0 hPa West 16.6 km/h 27.0 km/h 76 % 0.0 mm
13:32 14.8 °C 11.0 °C 1007.0 hPa West 16.6 km/h 23.0 km/h 76 % 0.0 mm
13:37 14.8 °C 11.0 °C 1007.0 hPa WNW 13.7 km/h 27.0 km/h 76 % 0.0 mm
13:42 14.9 °C 11.0 °C 1007.0 hPa West 9.3 km/h 32.3 km/h 75 % 0.0 mm
13:47 15.1 °C 11.0 °C 1007.0 hPa WNW 28.5 km/h 32.3 km/h 77 % 0.0 mm
13:52 14.8 °C 11.0 °C 1007.0 hPa WSW 16.9 km/h 37.8 km/h 77 % 0.0 mm
13:57 14.4 °C 11.0 °C 1007.0 hPa West 19.8 km/h 37.8 km/h 78 % 0.0 mm
14:02 14.2 °C 11.0 °C 1007.0 hPa WSW 27.0 km/h 27.0 km/h 79 % 0.0 mm
14:07 14.2 °C 11.0 °C 1007.0 hPa WNW 27.4 km/h 28.0 km/h 79 % 0.0 mm
14:12 14.3 °C 10.0 °C 1007.0 hPa WNW 24.5 km/h 28.0 km/h 76 % 0.0 mm
14:17 14.3 °C 11.0 °C 1008.0 hPa WSW 20.1 km/h 27.4 km/h 77 % 0.0 mm
14:22 14.2 °C 11.0 °C 1008.0 hPa West 20.6 km/h 27.7 km/h 77 % 0.0 mm
14:28 14.2 °C 10.0 °C 1008.0 hPa WSW 16.3 km/h 27.7 km/h 75 % 0.0 mm
14:33 14.4 °C 11.0 °C 1008.0 hPa West 19.1 km/h 27.4 km/h 77 % 0.0 mm
14:38 14.4 °C 11.0 °C 1008.0 hPa WSW 30.6 km/h 30.6 km/h 77 % 0.0 mm
14:43 14.4 °C 11.0 °C 1008.0 hPa West 19.8 km/h 32.3 km/h 77 % 0.0 mm
14:48 14.6 °C 11.0 °C 1008.0 hPa West 16.6 km/h 32.3 km/h 77 % 0.0 mm
14:53 14.6 °C 11.0 °C 1008.0 hPa WSW 12.2 km/h 27.0 km/h 77 % 0.0 mm
14:54 14.6 °C 11.0 °C 1008.0 hPa WSW 12.2 km/h 27.0 km/h 77 % 0.0 mm
14:59 15.0 °C 11.0 °C 1008.0 hPa WNW 20.9 km/h 31.4 km/h 74 % 0.0 mm
15:04 14.9 °C 11.0 °C 1009.0 hPa West 23.0 km/h 31.4 km/h 74 % 0.0 mm
15:09 14.9 °C 10.0 °C 1009.0 hPa West 16.3 km/h 30.9 km/h 73 % 0.0 mm
15:14 14.9 °C 10.0 °C 1009.0 hPa West 20.9 km/h 30.9 km/h 73 % 0.0 mm
15:19 15.0 °C 10.0 °C 1009.0 hPa West 28.0 km/h 32.0 km/h 73 % 0.0 mm
15:24 15.1 °C 11.0 °C 1009.0 hPa West 23.8 km/h 32.0 km/h 74 % 0.0 mm
15:29 15.1 °C 11.0 °C 1009.0 hPa WSW 22.7 km/h 28.0 km/h 74 % 0.0 mm
15:34 15.1 °C 10.0 °C 1009.0 hPa West 15.1 km/h 28.0 km/h 73 % 0.0 mm
15:39 15.1 °C 10.0 °C 1009.0 hPa West 15.1 km/h 27.4 km/h 73 % 0.0 mm
15:44 15.5 °C 11.0 °C 1009.0 hPa West 17.7 km/h 27.4 km/h 73 % 0.0 mm
15:49 15.7 °C 12.0 °C 1009.0 hPa West 16.3 km/h 24.5 km/h 75 % 0.0 mm
15:54 15.8 °C 11.0 °C 1009.0 hPa WSW 12.6 km/h 28.5 km/h 74 % 0.0 mm
15:59 15.8 °C 11.0 °C 1009.0 hPa West 13.7 km/h 28.5 km/h 74 % 0.0 mm
16:04 15.8 °C 11.0 °C 1009.0 hPa West 15.8 km/h 28.5 km/h 74 % 0.0 mm
16:09 15.8 °C 11.0 °C 1009.0 hPa West 19.8 km/h 36.0 km/h 74 % 0.0 mm
16:14 15.7 °C 10.0 °C 1009.0 hPa West 13.0 km/h 36.0 km/h 70 % 0.0 mm
16:19 15.6 °C 11.0 °C 1009.0 hPa WNW 24.5 km/h 28.5 km/h 71 % 0.0 mm
16:24 15.8 °C 11.0 °C 1009.0 hPa West 5.5 km/h 28.5 km/h 71 % 0.0 mm
16:29 15.8 °C 11.0 °C 1009.0 hPa West 15.8 km/h 25.6 km/h 71 % 0.0 mm
16:34 15.8 °C 10.0 °C 1009.0 hPa West 12.6 km/h 24.8 km/h 70 % 0.0 mm
16:39 15.9 °C 11.0 °C 1009.0 hPa West 6.9 km/h 21.2 km/h 70 % 0.0 mm
16:44 15.9 °C 10.0 °C 1009.0 hPa West 16.6 km/h 25.9 km/h 68 % 0.0 mm
16:49 15.9 °C 10.0 °C 1009.0 hPa West 14.0 km/h 25.9 km/h 68 % 0.0 mm
16:59 16.1 °C 10.0 °C 1009.0 hPa WSW 12.6 km/h 24.8 km/h 67 % 0.0 mm
17:04 16.3 °C 11.0 °C 1009.0 hPa NW 21.2 km/h 22.4 km/h 68 % 0.0 mm
17:09 16.5 °C 11.0 °C 1009.0 hPa West 23.3 km/h 23.3 km/h 67 % 0.0 mm
17:14 16.6 °C 10.0 °C 1009.0 hPa West 10.5 km/h 23.3 km/h 66 % 0.0 mm
17:19 16.5 °C 10.0 °C 1009.0 hPa WNW 11.6 km/h 25.9 km/h 65 % 0.0 mm
17:24 16.4 °C 10.0 °C 1009.0 hPa West 9.3 km/h 25.9 km/h 65 % 0.0 mm
17:29 16.5 °C 10.0 °C 1009.0 hPa WSW 13.7 km/h 24.8 km/h 65 % 0.0 mm
17:34 16.6 °C 10.0 °C 1009.0 hPa West 12.6 km/h 21.2 km/h 66 % 0.0 mm
17:39 16.5 °C 10.0 °C 1009.0 hPa WSW 20.1 km/h 27.7 km/h 64 % 0.0 mm
17:44 17.0 °C 10.0 °C 1009.0 hPa WSW 13.7 km/h 27.7 km/h 64 % 0.0 mm
17:50 17.0 °C 10.0 °C 1010.0 hPa West 15.8 km/h 21.6 km/h 64 % 0.0 mm
17:55 16.7 °C 10.0 °C 1010.0 hPa South 16.9 km/h 20.6 km/h 64 % 0.0 mm
18:00 16.8 °C 10.0 °C 1010.0 hPa WSW 16.6 km/h 24.5 km/h 63 % 0.0 mm
18:05 17.2 °C 10.0 °C 1010.0 hPa WSW 11.9 km/h 24.5 km/h 61 % 0.0 mm
18:10 17.2 °C 10.0 °C 1010.0 hPa West 20.9 km/h 22.4 km/h 61 % 0.0 mm
18:15 16.7 °C 10.0 °C 1010.0 hPa West 27.7 km/h 27.7 km/h 63 % 0.0 mm
18:20 16.7 °C 10.0 °C 1010.0 hPa West 20.6 km/h 31.4 km/h 63 % 0.0 mm
18:25 16.8 °C 9.0 °C 1010.0 hPa West 20.9 km/h 31.4 km/h 60 % 0.0 mm
18:30 16.8 °C 9.0 °C 1010.0 hPa West 17.2 km/h 25.6 km/h 60 % 0.0 mm
18:35 16.7 °C 9.0 °C 1010.0 hPa West 23.8 km/h 24.8 km/h 62 % 0.0 mm
18:40 16.4 °C 10.0 °C 1010.0 hPa West 17.7 km/h 26.7 km/h 64 % 0.0 mm
18:45 16.4 °C 10.0 °C 1010.0 hPa WSW 17.2 km/h 26.7 km/h 64 % 0.0 mm
18:50 16.4 °C 10.0 °C 1010.0 hPa West 15.8 km/h 22.7 km/h 64 % 0.0 mm
18:55 16.1 °C 10.0 °C 1010.0 hPa West 16.3 km/h 22.7 km/h 67 % 0.0 mm
19:00 16.0 °C 10.0 °C 1010.0 hPa West 12.2 km/h 21.9 km/h 68 % 0.0 mm
19:05 15.9 °C 10.0 °C 1010.0 hPa West 14.0 km/h 20.6 km/h 69 % 0.0 mm
19:10 15.8 °C 10.0 °C 1010.0 hPa WSW 15.4 km/h 20.6 km/h 70 % 0.0 mm
19:15 15.8 °C 10.0 °C 1011.1 hPa SSW 15.4 km/h 20.6 km/h 70 % 0.0 mm
19:20 15.8 °C 10.0 °C 1011.1 hPa West 12.2 km/h 18.0 km/h 70 % 0.0 mm
19:25 15.3 °C 11.0 °C 1011.1 hPa West 15.4 km/h 18.0 km/h 72 % 0.0 mm
19:30 15.2 °C 11.0 °C 1011.1 hPa West 8.7 km/h 17.7 km/h 72 % 0.0 mm
19:35 15.1 °C 10.0 °C 1011.1 hPa West 9.0 km/h 14.0 km/h 73 % 0.0 mm
19:40 15.1 °C 10.0 °C 1011.1 hPa West 7.9 km/h 14.0 km/h 73 % 0.0 mm
19:45 15.1 °C 10.0 °C 1011.1 hPa West 9.3 km/h 12.2 km/h 73 % 0.0 mm
19:50 15.1 °C 10.0 °C 1011.1 hPa West 9.0 km/h 11.9 km/h 73 % 0.0 mm
19:56 14.5 °C 11.0 °C 1011.1 hPa West 9.3 km/h 11.1 km/h 76 % 0.0 mm
20:01 14.5 °C 11.0 °C 1011.1 hPa West 5.8 km/h 10.1 km/h 76 % 0.0 mm
20:06 14.2 °C 11.0 °C 1011.1 hPa Calm   9.3 km/h 77 % 0.0 mm
20:11 14.1 °C 10.0 °C 1011.1 hPa WSW 5.5 km/h 7.6 km/h 78 % 0.0 mm
20:16 14.0 °C 11.0 °C 1011.1 hPa Calm   5.8 km/h 79 % 0.0 mm
20:21 14.0 °C 11.0 °C 1011.1 hPa WSW 7.6 km/h 7.6 km/h 79 % 0.0 mm
20:26 13.9 °C 11.0 °C 1011.1 hPa WSW 5.0 km/h 9.7 km/h 81 % 0.0 mm
20:31 13.9 °C 11.0 °C 1011.1 hPa Calm   9.7 km/h 81 % 0.0 mm
20:36 13.9 °C 11.0 °C 1011.1 hPa Calm   9.0 km/h 81 % 0.0 mm
20:41 13.9 °C 11.0 °C 1011.1 hPa West 7.9 km/h 7.9 km/h 81 % 0.0 mm
20:46 13.9 °C 11.0 °C 1012.1 hPa West 9.3 km/h 9.3 km/h 83 % 0.0 mm
20:51 13.7 °C 12.0 °C 1012.1 hPa SSW 5.5 km/h 9.3 km/h 85 % 0.5 mm
20:56 13.4 °C 12.0 °C 1012.1 hPa SSW 5.5 km/h 5.5 km/h 87 % 2.3 mm
21:01 13.2 °C 12.0 °C 1012.1 hPa NW 4.3 km/h 5.5 km/h 88 % 2.3 mm
21:06 13.0 °C 11.0 °C 1012.1 hPa Calm   4.3 km/h 88 % 2.5 mm
21:11 13.0 °C 11.0 °C 1012.1 hPa West 5.8 km/h 5.8 km/h 88 % 2.5 mm
21:16 12.7 °C 11.0 °C 1012.1 hPa WNW 9.3 km/h 9.3 km/h 89 % 2.5 mm
21:21 12.6 °C 11.0 °C 1012.1 hPa West 2.6 km/h 9.3 km/h 90 % 2.5 mm
21:26 12.6 °C 11.0 °C 1012.1 hPa WSW 6.4 km/h 9.3 km/h 90 % 2.5 mm
21:31 12.5 °C 12.0 °C 1012.1 hPa Calm   7.9 km/h 91 % 2.5 mm
21:36 12.4 °C 11.0 °C 1012.1 hPa Calm   5.8 km/h 91 % 2.5 mm
21:41 12.3 °C 11.0 °C 1012.1 hPa Calm     92 % 2.5 mm
21:46 12.2 °C 11.0 °C 1012.1 hPa Calm     92 % 2.5 mm
22:02 12.0 °C 11.0 °C 1012.1 hPa Calm     93 % 0.3 mm
22:07 12.0 °C 11.0 °C 1012.1 hPa Calm     93 % 0.0 mm
22:12 11.8 °C 11.0 °C 1012.1 hPa Calm     94 % 0.0 mm
22:17 11.7 °C 11.0 °C 1013.1 hPa Calm     94 % 0.0 mm
22:22 11.5 °C 11.0 °C 1013.1 hPa Calm     93 % 0.0 mm
22:27 11.3 °C 10.0 °C 1013.1 hPa Calm     93 % 0.0 mm
22:32 11.0 °C 10.0 °C 1013.1 hPa Calm     93 % 0.0 mm
22:37 10.9 °C 10.0 °C 1013.1 hPa Calm     94 % 0.0 mm
22:42 10.9 °C 10.0 °C 1013.1 hPa Calm   1.4 km/h 94 % 0.0 mm
22:47 10.9 °C 10.0 °C 1013.1 hPa Calm   1.4 km/h 94 % 0.0 mm
22:52 11.0 °C 10.0 °C 1013.1 hPa West 5.0 km/h 5.0 km/h 95 % 0.0 mm
22:57 11.0 °C 10.0 °C 1013.1 hPa Calm   5.8 km/h 95 % 0.0 mm
23:02 11.2 °C 11.0 °C 1013.1 hPa Calm   5.8 km/h 95 % 0.0 mm
23:07 11.3 °C 11.0 °C 1013.1 hPa Calm     96 % 0.0 mm
23:12 11.3 °C 11.0 °C 1013.1 hPa Calm     96 % 0.0 mm
23:17 11.4 °C 11.0 °C 1012.1 hPa Calm   1.4 km/h 96 % 0.0 mm
23:22 11.3 °C 11.0 °C 1012.1 hPa Calm   1.4 km/h 96 % 0.0 mm
23:27 11.1 °C 11.0 °C 1012.1 hPa Calm     96 % 0.0 mm
23:32 11.0 °C 11.0 °C 1012.1 hPa Calm     96 % 0.0 mm
23:38 11.0 °C 11.0 °C 1012.1 hPa Calm     96 % 0.0 mm
23:43 10.8 °C 10.0 °C 1012.1 hPa Calm     96 % 0.0 mm
23:48 10.8 °C 10.0 °C 1013.1 hPa Calm     96 % 0.0 mm
23:53 10.7 °C 10.0 °C 1013.1 hPa Calm     96 % 0.0 mm
23:58 10.6 °C 10.0 °C 1013.1 hPa Calm     96 % 0.0 mm
Le Gheer Warneton
Courtoisie de Weather Underground - 2.25 mb

Mise a jour : 17/12/2017 22:35:11
Généré par Cumulus 1.9.4 (1099)